sensor_id;sensor_type;location;lat;lon;timestamp;P1;durP1;ratioP1;P2;durP2;ratioP2
65206;SDS011;58477;48.072;11.970;2023-06-22T00:00:50;8.95;;;3.85;;
65206;SDS011;58477;48.072;11.970;2023-06-22T00:03:19;10.55;;;4.22;;
65206;SDS011;58477;48.072;11.970;2023-06-22T00:05:47;8.68;;;4.00;;
65206;SDS011;58477;48.072;11.970;2023-06-22T00:08:13;7.18;;;3.78;;
65206;SDS011;58477;48.072;11.970;2023-06-22T00:10:39;8.50;;;4.03;;
65206;SDS011;58477;48.072;11.970;2023-06-22T00:13:05;10.75;;;4.32;;
65206;SDS011;58477;48.072;11.970;2023-06-22T00:15:32;7.47;;;3.53;;
65206;SDS011;58477;48.072;11.970;2023-06-22T00:17:58;11.40;;;3.85;;
65206;SDS011;58477;48.072;11.970;2023-06-22T00:20:24;10.95;;;4.07;;
65206;SDS011;58477;48.072;11.970;2023-06-22T00:22:56;6.90;;;3.50;;
65206;SDS011;58477;48.072;11.970;2023-06-22T00:25:22;10.70;;;3.72;;
65206;SDS011;58477;48.072;11.970;2023-06-22T00:27:48;11.68;;;3.42;;
65206;SDS011;58477;48.072;11.970;2023-06-22T00:30:18;6.03;;;3.33;;
65206;SDS011;58477;48.072;11.970;2023-06-22T00:32:44;12.32;;;3.50;;
65206;SDS011;58477;48.072;11.970;2023-06-22T00:35:10;11.55;;;3.83;;
65206;SDS011;58477;48.072;11.970;2023-06-22T00:37:37;8.75;;;4.00;;
65206;SDS011;58477;48.072;11.970;2023-06-22T00:40:06;9.13;;;3.78;;
65206;SDS011;58477;48.072;11.970;2023-06-22T00:42:34;9.75;;;3.60;;
65206;SDS011;58477;48.072;11.970;2023-06-22T00:44:59;12.20;;;4.00;;
65206;SDS011;58477;48.072;11.970;2023-06-22T00:47:25;10.32;;;3.97;;
65206;SDS011;58477;48.072;11.970;2023-06-22T00:49:50;10.82;;;3.47;;
65206;SDS011;58477;48.072;11.970;2023-06-22T00:52:16;12.02;;;3.60;;
65206;SDS011;58477;48.072;11.970;2023-06-22T00:54:47;12.77;;;4.05;;
65206;SDS011;58477;48.072;11.970;2023-06-22T00:57:14;6.68;;;3.35;;
65206;SDS011;58477;48.072;11.970;2023-06-22T00:59:43;7.55;;;3.92;;
65206;SDS011;58477;48.072;11.970;2023-06-22T01:02:09;6.57;;;3.60;;
65206;SDS011;58477;48.072;11.970;2023-06-22T01:04:36;11.43;;;4.10;;
65206;SDS011;58477;48.072;11.970;2023-06-22T01:09:58;7.75;;;3.67;;
65206;SDS011;58477;48.072;11.970;2023-06-22T01:12:24;11.38;;;4.05;;
65206;SDS011;58477;48.072;11.970;2023-06-22T01:14:55;10.75;;;4.20;;
65206;SDS011;58477;48.072;11.970;2023-06-22T01:17:27;9.48;;;4.30;;
65206;SDS011;58477;48.072;11.970;2023-06-22T01:19:54;9.48;;;4.15;;
65206;SDS011;58477;48.072;11.970;2023-06-22T01:22:24;11.40;;;4.65;;
65206;SDS011;58477;48.072;11.970;2023-06-22T01:27:56;15.52;;;4.70;;
65206;SDS011;58477;48.072;11.970;2023-06-22T01:30:30;11.68;;;4.65;;
65206;SDS011;58477;48.072;11.970;2023-06-22T01:32:59;10.40;;;4.75;;
65206;SDS011;58477;48.072;11.970;2023-06-22T01:35:27;10.75;;;4.85;;
65206;SDS011;58477;48.072;11.970;2023-06-22T01:37:53;9.57;;;5.03;;
65206;SDS011;58477;48.072;11.970;2023-06-22T01:40:20;11.63;;;5.32;;
65206;SDS011;58477;48.072;11.970;2023-06-22T01:42:46;10.07;;;5.45;;
65206;SDS011;58477;48.072;11.970;2023-06-22T01:45:13;11.15;;;4.55;;
65206;SDS011;58477;48.072;11.970;2023-06-22T01:47:39;14.45;;;5.70;;
65206;SDS011;58477;48.072;11.970;2023-06-22T01:50:06;7.43;;;4.88;;
65206;SDS011;58477;48.072;11.970;2023-06-22T01:52:32;9.48;;;5.40;;
65206;SDS011;58477;48.072;11.970;2023-06-22T01:54:59;9.88;;;5.28;;
65206;SDS011;58477;48.072;11.970;2023-06-22T01:57:25;9.82;;;5.38;;
65206;SDS011;58477;48.072;11.970;2023-06-22T02:02:45;8.95;;;4.82;;
65206;SDS011;58477;48.072;11.970;2023-06-22T02:05:19;10.85;;;5.47;;
65206;SDS011;58477;48.072;11.970;2023-06-22T02:07:50;12.13;;;5.25;;
65206;SDS011;58477;48.072;11.970;2023-06-22T02:10:22;11.27;;;5.05;;
65206;SDS011;58477;48.072;11.970;2023-06-22T02:12:49;11.95;;;5.32;;
65206;SDS011;58477;48.072;11.970;2023-06-22T02:15:16;8.70;;;5.20;;
65206;SDS011;58477;48.072;11.970;2023-06-22T02:17:42;16.20;;;5.45;;
65206;SDS011;58477;48.072;11.970;2023-06-22T02:20:13;17.38;;;5.22;;
65206;SDS011;58477;48.072;11.970;2023-06-22T02:22:40;11.18;;;5.45;;
65206;SDS011;58477;48.072;11.970;2023-06-22T02:25:09;14.40;;;6.22;;
65206;SDS011;58477;48.072;11.970;2023-06-22T02:27:34;10.25;;;5.60;;
65206;SDS011;58477;48.072;11.970;2023-06-22T02:30:00;15.10;;;5.85;;
65206;SDS011;58477;48.072;11.970;2023-06-22T02:32:25;8.80;;;5.93;;
65206;SDS011;58477;48.072;11.970;2023-06-22T02:34:52;14.07;;;6.03;;
65206;SDS011;58477;48.072;11.970;2023-06-22T02:37:17;16.23;;;6.18;;
65206;SDS011;58477;48.072;11.970;2023-06-22T02:39:43;11.82;;;6.30;;
65206;SDS011;58477;48.072;11.970;2023-06-22T02:42:08;15.80;;;6.85;;
65206;SDS011;58477;48.072;11.970;2023-06-22T02:44:35;12.77;;;6.50;;
65206;SDS011;58477;48.072;11.970;2023-06-22T02:47:01;14.27;;;6.45;;
65206;SDS011;58477;48.072;11.970;2023-06-22T02:49:27;16.88;;;6.97;;
65206;SDS011;58477;48.072;11.970;2023-06-22T02:51:53;13.40;;;6.40;;
65206;SDS011;58477;48.072;11.970;2023-06-22T02:54:21;11.98;;;6.45;;
65206;SDS011;58477;48.072;11.970;2023-06-22T02:56:49;15.52;;;7.10;;
65206;SDS011;58477;48.072;11.970;2023-06-22T02:59:16;14.40;;;6.80;;
65206;SDS011;58477;48.072;11.970;2023-06-22T03:01:44;13.68;;;7.15;;
65206;SDS011;58477;48.072;11.970;2023-06-22T03:04:20;14.38;;;7.40;;
65206;SDS011;58477;48.072;11.970;2023-06-22T03:06:45;16.67;;;7.10;;
65206;SDS011;58477;48.072;11.970;2023-06-22T03:09:16;16.33;;;6.70;;
65206;SDS011;58477;48.072;11.970;2023-06-22T03:11:42;12.35;;;7.18;;
65206;SDS011;58477;48.072;11.970;2023-06-22T03:14:07;15.43;;;6.43;;
65206;SDS011;58477;48.072;11.970;2023-06-22T03:16:33;13.82;;;6.82;;
65206;SDS011;58477;48.072;11.970;2023-06-22T03:18:59;14.50;;;7.35;;
65206;SDS011;58477;48.072;11.970;2023-06-22T03:21:27;12.80;;;7.25;;
65206;SDS011;58477;48.072;11.970;2023-06-22T03:23:53;15.75;;;8.00;;
65206;SDS011;58477;48.072;11.970;2023-06-22T03:26:19;17.05;;;7.47;;
65206;SDS011;58477;48.072;11.970;2023-06-22T03:28:45;22.60;;;7.30;;
65206;SDS011;58477;48.072;11.970;2023-06-22T03:31:11;13.48;;;7.50;;
65206;SDS011;58477;48.072;11.970;2023-06-22T03:33:38;16.23;;;7.28;;
65206;SDS011;58477;48.072;11.970;2023-06-22T03:36:04;14.75;;;7.28;;
65206;SDS011;58477;48.072;11.970;2023-06-22T03:38:29;15.02;;;7.03;;
65206;SDS011;58477;48.072;11.970;2023-06-22T03:40:56;12.27;;;6.38;;
65206;SDS011;58477;48.072;11.970;2023-06-22T03:43:23;17.65;;;7.05;;
65206;SDS011;58477;48.072;11.970;2023-06-22T03:45:48;14.63;;;7.15;;
65206;SDS011;58477;48.072;11.970;2023-06-22T03:48:14;14.90;;;6.55;;
65206;SDS011;58477;48.072;11.970;2023-06-22T03:50:39;10.27;;;7.00;;
65206;SDS011;58477;48.072;11.970;2023-06-22T03:53:04;15.95;;;5.50;;
65206;SDS011;58477;48.072;11.970;2023-06-22T03:55:30;13.18;;;5.72;;
65206;SDS011;58477;48.072;11.970;2023-06-22T03:57:55;14.82;;;5.18;;
65206;SDS011;58477;48.072;11.970;2023-06-22T04:00:25;14.48;;;4.78;;
65206;SDS011;58477;48.072;11.970;2023-06-22T04:02:50;12.10;;;5.38;;
65206;SDS011;58477;48.072;11.970;2023-06-22T04:05:16;7.68;;;4.30;;
65206;SDS011;58477;48.072;11.970;2023-06-22T04:07:44;11.35;;;4.72;;
65206;SDS011;58477;48.072;11.970;2023-06-22T04:10:09;9.93;;;4.15;;
65206;SDS011;58477;48.072;11.970;2023-06-22T04:12:35;7.82;;;4.20;;
65206;SDS011;58477;48.072;11.970;2023-06-22T04:15:01;11.18;;;4.57;;
65206;SDS011;58477;48.072;11.970;2023-06-22T04:17:26;8.43;;;4.10;;
65206;SDS011;58477;48.072;11.970;2023-06-22T04:19:52;12.48;;;4.22;;
65206;SDS011;58477;48.072;11.970;2023-06-22T04:22:20;8.88;;;4.47;;
65206;SDS011;58477;48.072;11.970;2023-06-22T04:24:46;11.25;;;4.68;;
65206;SDS011;58477;48.072;11.970;2023-06-22T04:27:11;17.00;;;5.30;;
65206;SDS011;58477;48.072;11.970;2023-06-22T04:29:37;10.60;;;4.10;;
65206;SDS011;58477;48.072;11.970;2023-06-22T04:32:03;12.32;;;4.18;;
65206;SDS011;58477;48.072;11.970;2023-06-22T04:34:31;8.73;;;4.10;;
65206;SDS011;58477;48.072;11.970;2023-06-22T04:36:56;8.50;;;3.95;;
65206;SDS011;58477;48.072;11.970;2023-06-22T04:39:22;12.88;;;4.72;;
65206;SDS011;58477;48.072;11.970;2023-06-22T04:41:49;12.32;;;4.72;;
65206;SDS011;58477;48.072;11.970;2023-06-22T04:44:16;8.50;;;4.32;;
65206;SDS011;58477;48.072;11.970;2023-06-22T04:46:52;9.77;;;4.72;;
65206;SDS011;58477;48.072;11.970;2023-06-22T04:49:28;6.47;;;4.18;;
65206;SDS011;58477;48.072;11.970;2023-06-22T04:51:59;15.80;;;4.85;;
65206;SDS011;58477;48.072;11.970;2023-06-22T04:54:25;10.75;;;4.68;;
65206;SDS011;58477;48.072;11.970;2023-06-22T04:56:51;7.28;;;4.40;;
65206;SDS011;58477;48.072;11.970;2023-06-22T04:59:28;11.52;;;4.03;;
65206;SDS011;58477;48.072;11.970;2023-06-22T05:01:59;12.73;;;4.57;;
65206;SDS011;58477;48.072;11.970;2023-06-22T05:04:26;14.88;;;4.75;;
65206;SDS011;58477;48.072;11.970;2023-06-22T05:06:53;11.15;;;5.10;;
65206;SDS011;58477;48.072;11.970;2023-06-22T05:09:19;8.68;;;4.38;;
65206;SDS011;58477;48.072;11.970;2023-06-22T05:11:45;10.85;;;4.53;;
65206;SDS011;58477;48.072;11.970;2023-06-22T05:14:11;13.10;;;4.32;;
65206;SDS011;58477;48.072;11.970;2023-06-22T05:16:37;11.65;;;4.00;;
65206;SDS011;58477;48.072;11.970;2023-06-22T05:19:03;11.43;;;4.60;;
65206;SDS011;58477;48.072;11.970;2023-06-22T05:21:29;9.55;;;4.28;;
65206;SDS011;58477;48.072;11.970;2023-06-22T05:23:55;10.27;;;4.43;;
65206;SDS011;58477;48.072;11.970;2023-06-22T05:26:25;12.68;;;5.20;;
65206;SDS011;58477;48.072;11.970;2023-06-22T05:28:51;13.65;;;4.72;;
65206;SDS011;58477;48.072;11.970;2023-06-22T05:31:17;11.07;;;3.85;;
65206;SDS011;58477;48.072;11.970;2023-06-22T05:33:44;11.50;;;4.38;;
65206;SDS011;58477;48.072;11.970;2023-06-22T05:36:11;11.35;;;4.30;;
65206;SDS011;58477;48.072;11.970;2023-06-22T05:38:38;13.57;;;4.78;;
65206;SDS011;58477;48.072;11.970;2023-06-22T05:41:04;12.25;;;4.43;;
65206;SDS011;58477;48.072;11.970;2023-06-22T05:43:29;17.60;;;5.10;;
65206;SDS011;58477;48.072;11.970;2023-06-22T05:45:55;11.48;;;4.47;;
65206;SDS011;58477;48.072;11.970;2023-06-22T05:48:20;10.30;;;4.30;;
65206;SDS011;58477;48.072;11.970;2023-06-22T05:50:46;12.75;;;4.82;;
65206;SDS011;58477;48.072;11.970;2023-06-22T05:53:11;13.88;;;4.68;;
65206;SDS011;58477;48.072;11.970;2023-06-22T05:55:37;9.52;;;4.55;;
65206;SDS011;58477;48.072;11.970;2023-06-22T05:58:02;14.75;;;4.75;;
65206;SDS011;58477;48.072;11.970;2023-06-22T06:00:31;15.88;;;5.15;;
65206;SDS011;58477;48.072;11.970;2023-06-22T06:02:56;12.23;;;5.32;;
65206;SDS011;58477;48.072;11.970;2023-06-22T06:05:22;18.42;;;5.57;;
65206;SDS011;58477;48.072;11.970;2023-06-22T06:07:49;16.17;;;5.63;;
65206;SDS011;58477;48.072;11.970;2023-06-22T06:10:14;12.38;;;5.65;;
65206;SDS011;58477;48.072;11.970;2023-06-22T06:12:40;14.90;;;4.93;;
65206;SDS011;58477;48.072;11.970;2023-06-22T06:15:06;13.43;;;5.05;;
65206;SDS011;58477;48.072;11.970;2023-06-22T06:17:32;13.23;;;4.72;;
65206;SDS011;58477;48.072;11.970;2023-06-22T06:19:58;9.35;;;4.75;;
65206;SDS011;58477;48.072;11.970;2023-06-22T06:22:24;12.15;;;5.15;;
65206;SDS011;58477;48.072;11.970;2023-06-22T06:24:50;11.65;;;4.32;;
65206;SDS011;58477;48.072;11.970;2023-06-22T06:27:15;11.60;;;4.45;;
65206;SDS011;58477;48.072;11.970;2023-06-22T06:29:43;14.65;;;5.18;;
65206;SDS011;58477;48.072;11.970;2023-06-22T06:32:10;12.75;;;4.68;;
65206;SDS011;58477;48.072;11.970;2023-06-22T06:34:36;13.43;;;4.82;;
65206;SDS011;58477;48.072;11.970;2023-06-22T06:37:01;13.60;;;4.60;;
65206;SDS011;58477;48.072;11.970;2023-06-22T06:39:27;13.80;;;5.30;;
65206;SDS011;58477;48.072;11.970;2023-06-22T06:41:52;12.13;;;4.55;;
65206;SDS011;58477;48.072;11.970;2023-06-22T06:44:18;16.17;;;4.55;;
65206;SDS011;58477;48.072;11.970;2023-06-22T06:46:44;14.20;;;5.07;;
65206;SDS011;58477;48.072;11.970;2023-06-22T06:49:09;11.73;;;5.25;;
65206;SDS011;58477;48.072;11.970;2023-06-22T06:51:35;12.63;;;4.63;;
65206;SDS011;58477;48.072;11.970;2023-06-22T06:54:01;13.48;;;4.85;;
65206;SDS011;58477;48.072;11.970;2023-06-22T06:56:28;11.73;;;4.70;;
65206;SDS011;58477;48.072;11.970;2023-06-22T06:58:57;11.88;;;4.97;;
65206;SDS011;58477;48.072;11.970;2023-06-22T07:01:23;13.45;;;5.13;;
65206;SDS011;58477;48.072;11.970;2023-06-22T07:03:49;11.75;;;4.50;;
65206;SDS011;58477;48.072;11.970;2023-06-22T07:06:14;11.57;;;5.18;;
65206;SDS011;58477;48.072;11.970;2023-06-22T07:08:41;10.70;;;4.85;;
65206;SDS011;58477;48.072;11.970;2023-06-22T07:11:07;12.90;;;4.85;;
65206;SDS011;58477;48.072;11.970;2023-06-22T07:13:33;11.35;;;4.82;;
65206;SDS011;58477;48.072;11.970;2023-06-22T07:15:58;16.73;;;5.18;;
65206;SDS011;58477;48.072;11.970;2023-06-22T07:18:24;15.63;;;4.53;;
65206;SDS011;58477;48.072;11.970;2023-06-22T07:20:49;11.43;;;5.13;;
65206;SDS011;58477;48.072;11.970;2023-06-22T07:23:16;12.77;;;5.18;;
65206;SDS011;58477;48.072;11.970;2023-06-22T07:25:42;10.05;;;4.22;;
65206;SDS011;58477;48.072;11.970;2023-06-22T07:28:08;9.57;;;4.50;;
65206;SDS011;58477;48.072;11.970;2023-06-22T07:30:33;15.77;;;5.20;;
65206;SDS011;58477;48.072;11.970;2023-06-22T07:32:59;12.70;;;5.15;;
65206;SDS011;58477;48.072;11.970;2023-06-22T07:35:29;10.27;;;5.10;;
65206;SDS011;58477;48.072;11.970;2023-06-22T07:37:55;12.73;;;5.10;;
65206;SDS011;58477;48.072;11.970;2023-06-22T07:40:21;17.33;;;5.05;;
65206;SDS011;58477;48.072;11.970;2023-06-22T07:42:47;12.38;;;4.88;;
65206;SDS011;58477;48.072;11.970;2023-06-22T07:45:13;12.10;;;5.03;;
65206;SDS011;58477;48.072;11.970;2023-06-22T07:47:39;9.40;;;4.60;;
65206;SDS011;58477;48.072;11.970;2023-06-22T07:50:04;20.17;;;5.40;;
65206;SDS011;58477;48.072;11.970;2023-06-22T07:52:30;11.90;;;5.15;;
65206;SDS011;58477;48.072;11.970;2023-06-22T07:54:56;12.27;;;5.10;;
65206;SDS011;58477;48.072;11.970;2023-06-22T07:57:21;12.52;;;5.10;;
65206;SDS011;58477;48.072;11.970;2023-06-22T07:59:47;9.68;;;5.63;;
65206;SDS011;58477;48.072;11.970;2023-06-22T08:02:12;10.77;;;4.78;;
65206;SDS011;58477;48.072;11.970;2023-06-22T08:04:38;10.52;;;4.57;;
65206;SDS011;58477;48.072;11.970;2023-06-22T08:07:04;11.70;;;5.13;;
65206;SDS011;58477;48.072;11.970;2023-06-22T08:09:31;11.57;;;5.35;;
65206;SDS011;58477;48.072;11.970;2023-06-22T08:11:58;13.00;;;5.13;;
65206;SDS011;58477;48.072;11.970;2023-06-22T08:14:27;16.00;;;5.72;;
65206;SDS011;58477;48.072;11.970;2023-06-22T08:16:52;18.05;;;5.28;;
65206;SDS011;58477;48.072;11.970;2023-06-22T08:19:18;15.05;;;4.93;;
65206;SDS011;58477;48.072;11.970;2023-06-22T08:21:43;14.57;;;4.78;;
65206;SDS011;58477;48.072;11.970;2023-06-22T08:24:09;11.55;;;5.20;;
65206;SDS011;58477;48.072;11.970;2023-06-22T08:26:35;18.02;;;5.35;;
65206;SDS011;58477;48.072;11.970;2023-06-22T08:29:02;17.05;;;5.70;;
65206;SDS011;58477;48.072;11.970;2023-06-22T08:31:28;11.98;;;4.82;;
65206;SDS011;58477;48.072;11.970;2023-06-22T08:33:54;13.23;;;4.65;;
65206;SDS011;58477;48.072;11.970;2023-06-22T08:36:19;13.95;;;4.80;;
65206;SDS011;58477;48.072;11.970;2023-06-22T08:38:45;12.02;;;4.53;;
65206;SDS011;58477;48.072;11.970;2023-06-22T08:41:15;9.93;;;5.20;;
65206;SDS011;58477;48.072;11.970;2023-06-22T08:43:41;13.68;;;5.65;;
65206;SDS011;58477;48.072;11.970;2023-06-22T08:46:08;14.15;;;5.20;;
65206;SDS011;58477;48.072;11.970;2023-06-22T08:48:33;11.80;;;4.97;;
65206;SDS011;58477;48.072;11.970;2023-06-22T08:50:59;11.57;;;5.30;;
65206;SDS011;58477;48.072;11.970;2023-06-22T08:53:24;13.98;;;4.90;;
65206;SDS011;58477;48.072;11.970;2023-06-22T08:55:49;10.55;;;5.07;;
65206;SDS011;58477;48.072;11.970;2023-06-22T08:58:16;13.63;;;5.32;;
65206;SDS011;58477;48.072;11.970;2023-06-22T09:00:41;12.85;;;4.50;;
65206;SDS011;58477;48.072;11.970;2023-06-22T09:03:06;15.10;;;5.57;;
65206;SDS011;58477;48.072;11.970;2023-06-22T09:05:33;17.77;;;6.03;;
65206;SDS011;58477;48.072;11.970;2023-06-22T09:07:58;9.98;;;5.25;;
65206;SDS011;58477;48.072;11.970;2023-06-22T09:10:24;9.75;;;4.50;;
65206;SDS011;58477;48.072;11.970;2023-06-22T09:12:50;11.90;;;4.90;;
65206;SDS011;58477;48.072;11.970;2023-06-22T09:15:15;14.32;;;4.82;;
65206;SDS011;58477;48.072;11.970;2023-06-22T09:17:41;17.67;;;5.55;;
65206;SDS011;58477;48.072;11.970;2023-06-22T09:20:06;12.13;;;5.18;;
65206;SDS011;58477;48.072;11.970;2023-06-22T09:22:35;13.95;;;4.80;;
65206;SDS011;58477;48.072;11.970;2023-06-22T09:25:01;15.52;;;5.15;;
65206;SDS011;58477;48.072;11.970;2023-06-22T09:27:26;19.67;;;5.43;;
65206;SDS011;58477;48.072;11.970;2023-06-22T09:29:52;14.85;;;5.70;;
65206;SDS011;58477;48.072;11.970;2023-06-22T09:32:17;20.02;;;4.90;;
65206;SDS011;58477;48.072;11.970;2023-06-22T09:34:42;13.15;;;5.20;;
65206;SDS011;58477;48.072;11.970;2023-06-22T09:37:08;16.00;;;5.28;;
65206;SDS011;58477;48.072;11.970;2023-06-22T09:39:33;13.95;;;5.25;;
65206;SDS011;58477;48.072;11.970;2023-06-22T09:41:59;11.60;;;5.18;;
65206;SDS011;58477;48.072;11.970;2023-06-22T09:44:27;14.30;;;4.70;;
65206;SDS011;58477;48.072;11.970;2023-06-22T09:46:53;12.57;;;4.40;;
65206;SDS011;58477;48.072;11.970;2023-06-22T09:49:18;14.05;;;5.65;;
65206;SDS011;58477;48.072;11.970;2023-06-22T09:51:43;9.05;;;4.45;;
65206;SDS011;58477;48.072;11.970;2023-06-22T09:54:09;13.50;;;5.40;;
65206;SDS011;58477;48.072;11.970;2023-06-22T09:56:34;14.23;;;5.40;;
65206;SDS011;58477;48.072;11.970;2023-06-22T09:59:00;23.08;;;5.72;;
65206;SDS011;58477;48.072;11.970;2023-06-22T10:01:25;17.77;;;5.15;;
65206;SDS011;58477;48.072;11.970;2023-06-22T10:03:52;10.88;;;5.10;;
65206;SDS011;58477;48.072;11.970;2023-06-22T10:06:21;19.95;;;5.35;;
65206;SDS011;58477;48.072;11.970;2023-06-22T10:08:46;22.75;;;5.78;;
65206;SDS011;58477;48.072;11.970;2023-06-22T10:11:13;17.65;;;6.15;;
65206;SDS011;58477;48.072;11.970;2023-06-22T10:13:38;14.27;;;5.47;;
65206;SDS011;58477;48.072;11.970;2023-06-22T10:16:04;13.73;;;5.28;;
65206;SDS011;58477;48.072;11.970;2023-06-22T10:18:29;17.63;;;5.40;;
65206;SDS011;58477;48.072;11.970;2023-06-22T10:20:55;19.48;;;5.57;;
65206;SDS011;58477;48.072;11.970;2023-06-22T10:23:21;23.40;;;5.75;;
65206;SDS011;58477;48.072;11.970;2023-06-22T10:25:47;19.15;;;5.43;;
65206;SDS011;58477;48.072;11.970;2023-06-22T10:28:13;12.07;;;5.47;;
65206;SDS011;58477;48.072;11.970;2023-06-22T10:30:39;14.15;;;4.95;;
65206;SDS011;58477;48.072;11.970;2023-06-22T10:33:11;19.63;;;5.05;;
65206;SDS011;58477;48.072;11.970;2023-06-22T10:35:37;25.45;;;5.82;;
65206;SDS011;58477;48.072;11.970;2023-06-22T10:38:03;20.20;;;5.97;;
65206;SDS011;58477;48.072;11.970;2023-06-22T10:40:29;17.85;;;5.55;;
65206;SDS011;58477;48.072;11.970;2023-06-22T10:42:54;19.85;;;5.72;;
65206;SDS011;58477;48.072;11.970;2023-06-22T10:45:20;15.10;;;5.70;;
65206;SDS011;58477;48.072;11.970;2023-06-22T10:47:45;23.55;;;5.28;;
65206;SDS011;58477;48.072;11.970;2023-06-22T10:50:11;17.77;;;5.18;;
65206;SDS011;58477;48.072;11.970;2023-06-22T10:52:37;16.95;;;4.97;;
65206;SDS011;58477;48.072;11.970;2023-06-22T10:55:02;24.30;;;5.35;;
65206;SDS011;58477;48.072;11.970;2023-06-22T10:57:28;21.48;;;5.50;;
65206;SDS011;58477;48.072;11.970;2023-06-22T10:59:54;13.07;;;4.85;;
65206;SDS011;58477;48.072;11.970;2023-06-22T11:02:19;16.75;;;5.00;;
65206;SDS011;58477;48.072;11.970;2023-06-22T11:04:45;18.38;;;5.22;;
65206;SDS011;58477;48.072;11.970;2023-06-22T11:07:11;14.38;;;5.20;;
65206;SDS011;58477;48.072;11.970;2023-06-22T11:09:36;17.00;;;5.07;;
65206;SDS011;58477;48.072;11.970;2023-06-22T11:12:03;17.05;;;5.20;;
65206;SDS011;58477;48.072;11.970;2023-06-22T11:14:29;16.10;;;4.97;;
65206;SDS011;58477;48.072;11.970;2023-06-22T11:16:54;19.42;;;5.97;;
65206;SDS011;58477;48.072;11.970;2023-06-22T11:19:21;19.90;;;5.45;;
65206;SDS011;58477;48.072;11.970;2023-06-22T11:21:46;14.13;;;4.95;;
65206;SDS011;58477;48.072;11.970;2023-06-22T11:24:12;14.25;;;5.47;;
65206;SDS011;58477;48.072;11.970;2023-06-22T11:26:37;12.70;;;5.57;;
65206;SDS011;58477;48.072;11.970;2023-06-22T11:29:03;15.95;;;5.88;;
65206;SDS011;58477;48.072;11.970;2023-06-22T11:31:32;20.98;;;5.20;;
65206;SDS011;58477;48.072;11.970;2023-06-22T11:33:57;17.60;;;5.20;;
65206;SDS011;58477;48.072;11.970;2023-06-22T11:36:23;15.50;;;5.13;;
65206;SDS011;58477;48.072;11.970;2023-06-22T11:38:48;21.52;;;5.78;;
65206;SDS011;58477;48.072;11.970;2023-06-22T11:41:14;18.90;;;5.78;;
65206;SDS011;58477;48.072;11.970;2023-06-22T11:43:39;20.75;;;4.95;;
65206;SDS011;58477;48.072;11.970;2023-06-22T11:46:04;19.63;;;5.15;;
65206;SDS011;58477;48.072;11.970;2023-06-22T11:48:30;24.23;;;5.38;;
65206;SDS011;58477;48.072;11.970;2023-06-22T11:50:56;20.00;;;5.70;;
65206;SDS011;58477;48.072;11.970;2023-06-22T11:53:23;13.50;;;4.85;;
65206;SDS011;58477;48.072;11.970;2023-06-22T11:55:49;20.73;;;5.72;;
65206;SDS011;58477;48.072;11.970;2023-06-22T11:58:15;14.38;;;4.72;;
65206;SDS011;58477;48.072;11.970;2023-06-22T12:00:41;15.05;;;5.38;;
65206;SDS011;58477;48.072;11.970;2023-06-22T12:03:07;15.00;;;4.78;;
65206;SDS011;58477;48.072;11.970;2023-06-22T12:05:32;16.77;;;4.72;;
65206;SDS011;58477;48.072;11.970;2023-06-22T12:07:58;22.38;;;4.82;;
65206;SDS011;58477;48.072;11.970;2023-06-22T12:10:25;16.80;;;4.93;;
65206;SDS011;58477;48.072;11.970;2023-06-22T12:12:51;16.98;;;4.90;;
65206;SDS011;58477;48.072;11.970;2023-06-22T12:15:16;17.65;;;4.72;;
65206;SDS011;58477;48.072;11.970;2023-06-22T12:17:42;19.42;;;5.35;;
65206;SDS011;58477;48.072;11.970;2023-06-22T12:20:07;14.38;;;5.25;;
65206;SDS011;58477;48.072;11.970;2023-06-22T12:22:33;19.05;;;5.32;;
65206;SDS011;58477;48.072;11.970;2023-06-22T12:24:59;18.92;;;5.18;;
65206;SDS011;58477;48.072;11.970;2023-06-22T12:27:25;14.43;;;5.05;;
65206;SDS011;58477;48.072;11.970;2023-06-22T12:29:50;10.85;;;4.65;;
65206;SDS011;58477;48.072;11.970;2023-06-22T12:32:16;13.35;;;4.95;;
65206;SDS011;58477;48.072;11.970;2023-06-22T12:34:42;15.48;;;5.07;;
65206;SDS011;58477;48.072;11.970;2023-06-22T12:37:08;16.20;;;5.15;;
65206;SDS011;58477;48.072;11.970;2023-06-22T12:39:33;14.90;;;4.90;;
65206;SDS011;58477;48.072;11.970;2023-06-22T12:41:59;20.27;;;5.18;;
65206;SDS011;58477;48.072;11.970;2023-06-22T12:44:25;20.02;;;5.13;;
65206;SDS011;58477;48.072;11.970;2023-06-22T12:46:50;19.27;;;4.90;;
65206;SDS011;58477;48.072;11.970;2023-06-22T12:49:15;21.20;;;4.95;;
65206;SDS011;58477;48.072;11.970;2023-06-22T12:51:41;22.58;;;5.32;;
65206;SDS011;58477;48.072;11.970;2023-06-22T12:54:08;13.80;;;4.32;;
65206;SDS011;58477;48.072;11.970;2023-06-22T12:56:33;14.35;;;4.80;;
65206;SDS011;58477;48.072;11.970;2023-06-22T12:58:59;24.77;;;5.50;;
65206;SDS011;58477;48.072;11.970;2023-06-22T13:01:28;13.95;;;4.43;;
65206;SDS011;58477;48.072;11.970;2023-06-22T13:03:53;16.52;;;5.10;;
65206;SDS011;58477;48.072;11.970;2023-06-22T13:06:19;16.92;;;4.97;;
65206;SDS011;58477;48.072;11.970;2023-06-22T13:08:45;10.90;;;4.78;;
65206;SDS011;58477;48.072;11.970;2023-06-22T13:11:10;20.70;;;4.78;;
65206;SDS011;58477;48.072;11.970;2023-06-22T13:13:35;11.68;;;4.45;;
65206;SDS011;58477;48.072;11.970;2023-06-22T13:16:01;18.40;;;5.18;;
65206;SDS011;58477;48.072;11.970;2023-06-22T13:18:26;14.00;;;4.60;;
65206;SDS011;58477;48.072;11.970;2023-06-22T13:20:52;17.85;;;4.47;;
65206;SDS011;58477;48.072;11.970;2023-06-22T13:23:19;13.80;;;4.72;;
65206;SDS011;58477;48.072;11.970;2023-06-22T13:25:47;14.93;;;4.65;;
65206;SDS011;58477;48.072;11.970;2023-06-22T13:28:13;18.00;;;4.85;;
65206;SDS011;58477;48.072;11.970;2023-06-22T13:30:40;16.27;;;4.38;;
65206;SDS011;58477;48.072;11.970;2023-06-22T13:33:06;18.58;;;5.30;;
65206;SDS011;58477;48.072;11.970;2023-06-22T13:35:32;19.58;;;5.32;;
65206;SDS011;58477;48.072;11.970;2023-06-22T13:37:57;15.65;;;4.78;;
65206;SDS011;58477;48.072;11.970;2023-06-22T13:40:23;15.15;;;5.03;;
65206;SDS011;58477;48.072;11.970;2023-06-22T13:42:48;21.20;;;5.40;;
65206;SDS011;58477;48.072;11.970;2023-06-22T13:45:14;13.13;;;4.35;;
65206;SDS011;58477;48.072;11.970;2023-06-22T13:47:42;18.90;;;4.68;;
65206;SDS011;58477;48.072;11.970;2023-06-22T13:50:07;21.33;;;5.05;;
65206;SDS011;58477;48.072;11.970;2023-06-22T13:52:33;11.88;;;4.53;;
65206;SDS011;58477;48.072;11.970;2023-06-22T13:54:59;20.73;;;4.95;;
65206;SDS011;58477;48.072;11.970;2023-06-22T13:57:24;14.80;;;5.20;;
65206;SDS011;58477;48.072;11.970;2023-06-22T13:59:49;14.75;;;4.57;;
65206;SDS011;58477;48.072;11.970;2023-06-22T14:02:15;20.25;;;5.20;;
65206;SDS011;58477;48.072;11.970;2023-06-22T14:04:40;20.33;;;5.00;;
65206;SDS011;58477;48.072;11.970;2023-06-22T14:07:06;18.58;;;4.50;;
65206;SDS011;58477;48.072;11.970;2023-06-22T14:09:31;15.15;;;4.38;;
65206;SDS011;58477;48.072;11.970;2023-06-22T14:11:57;20.50;;;5.10;;
65206;SDS011;58477;48.072;11.970;2023-06-22T14:14:22;13.25;;;4.82;;
65206;SDS011;58477;48.072;11.970;2023-06-22T14:16:47;10.65;;;4.20;;
65206;SDS011;58477;48.072;11.970;2023-06-22T14:19:16;18.40;;;4.72;;
65206;SDS011;58477;48.072;11.970;2023-06-22T14:21:43;14.18;;;4.55;;
65206;SDS011;58477;48.072;11.970;2023-06-22T14:24:08;14.52;;;5.07;;
65206;SDS011;58477;48.072;11.970;2023-06-22T14:26:33;19.08;;;4.68;;